Terminal Aerodrome Forecast
Issued by NWS

Home | Current Version | Previous Version | Text Only | Print | Product List | Glossary On
Versions: 1 2 3 4 5 6 7 8 9 10 11 12 13 14 15 16 17 18 19 20 21
349
FTUS42 KTAE 161739
TAFVLD
TAF
KVLD 161739Z 1618/1718 18003KT P6SM SCT070
     FM170900 13002KT 2SM BR BKN007
     FM171400 17005KT P6SM SCT050=

USA.gov is the U.S. government's official web portal to all federal, state and local government web resources and services.